sensor_id;sensor_type;location;lat;lon;timestamp;pressure;altitude;pressure_sealevel;temperature;humidity
32733;BME280;11867;51.198;11.966;2023-08-21T00:00:57;101025.88;;;23.88;100.00
32733;BME280;11867;51.198;11.966;2023-08-21T00:02:22;101025.56;;;23.77;100.00
32733;BME280;11867;51.198;11.966;2023-08-21T00:03:59;101032.63;;;23.74;100.00
32733;BME280;11867;51.198;11.966;2023-08-21T00:05:34;101019.28;;;23.80;100.00
32733;BME280;11867;51.198;11.966;2023-08-21T00:07:23;101031.63;;;23.95;100.00
32733;BME280;11867;51.198;11.966;2023-08-21T00:08:53;101031.84;;;24.02;100.00
32733;BME280;11867;51.198;11.966;2023-08-21T00:10:25;101038.22;;;24.03;100.00
32733;BME280;11867;51.198;11.966;2023-08-21T00:11:53;101028.69;;;24.04;100.00
32733;BME280;11867;51.198;11.966;2023-08-21T00:13:21;101026.97;;;23.99;100.00
32733;BME280;11867;51.198;11.966;2023-08-21T00:14:57;101030.84;;;23.94;100.00
32733;BME280;11867;51.198;11.966;2023-08-21T00:16:23;101024.09;;;23.95;100.00
32733;BME280;11867;51.198;11.966;2023-08-21T00:17:46;101021.53;;;24.03;100.00
32733;BME280;11867;51.198;11.966;2023-08-21T00:19:17;101023.13;;;24.04;100.00
32733;BME280;11867;51.198;11.966;2023-08-21T00:20:44;101024.53;;;23.97;100.00
32733;BME280;11867;51.198;11.966;2023-08-21T00:22:16;101020.03;;;23.93;100.00
32733;BME280;11867;51.198;11.966;2023-08-21T00:23:41;101029.22;;;23.93;100.00
32733;BME280;11867;51.198;11.966;2023-08-21T00:25:10;101029.72;;;23.83;100.00
32733;BME280;11867;51.198;11.966;2023-08-21T00:26:41;101026.94;;;23.83;100.00
32733;BME280;11867;51.198;11.966;2023-08-21T00:28:11;101034.16;;;23.72;100.00
32733;BME280;11867;51.198;11.966;2023-08-21T00:29:37;101022.34;;;23.63;100.00
32733;BME280;11867;51.198;11.966;2023-08-21T00:31:13;101034.19;;;23.60;100.00
32733;BME280;11867;51.198;11.966;2023-08-21T00:32:47;101035.81;;;23.61;100.00
32733;BME280;11867;51.198;11.966;2023-08-21T00:34:09;101025.28;;;23.42;100.00
32733;BME280;11867;51.198;11.966;2023-08-21T00:35:42;101034.06;;;23.56;100.00
32733;BME280;11867;51.198;11.966;2023-08-21T00:37:10;101034.22;;;23.47;100.00
32733;BME280;11867;51.198;11.966;2023-08-21T00:38:54;101037.00;;;23.47;100.00
32733;BME280;11867;51.198;11.966;2023-08-21T00:40:25;101040.25;;;23.49;100.00
32733;BME280;11867;51.198;11.966;2023-08-21T00:41:49;101033.09;;;23.36;100.00
32733;BME280;11867;51.198;11.966;2023-08-21T00:43:21;101039.56;;;23.40;100.00
32733;BME280;11867;51.198;11.966;2023-08-21T00:44:54;101043.25;;;23.56;100.00
32733;BME280;11867;51.198;11.966;2023-08-21T00:46:16;101043.19;;;23.69;100.00
32733;BME280;11867;51.198;11.966;2023-08-21T00:47:46;101039.81;;;23.75;100.00
32733;BME280;11867;51.198;11.966;2023-08-21T00:49:16;101038.19;;;23.87;100.00
32733;BME280;11867;51.198;11.966;2023-08-21T00:50:49;101044.81;;;23.82;100.00
32733;BME280;11867;51.198;11.966;2023-08-21T00:52:47;101042.81;;;23.42;100.00
32733;BME280;11867;51.198;11.966;2023-08-21T00:54:28;101042.59;;;22.73;100.00
32733;BME280;11867;51.198;11.966;2023-08-21T00:56:07;101042.97;;;22.05;100.00
32733;BME280;11867;51.198;11.966;2023-08-21T00:57:42;101034.34;;;21.86;100.00
32733;BME280;11867;51.198;11.966;2023-08-21T00:59:07;101049.09;;;21.99;100.00
32733;BME280;11867;51.198;11.966;2023-08-21T01:01:02;101039.44;;;21.63;100.00
32733;BME280;11867;51.198;11.966;2023-08-21T01:02:35;101030.47;;;21.36;100.00
32733;BME280;11867;51.198;11.966;2023-08-21T01:04:11;101036.84;;;21.36;100.00
32733;BME280;11867;51.198;11.966;2023-08-21T01:05:57;101030.94;;;21.17;100.00
32733;BME280;11867;51.198;11.966;2023-08-21T01:07:23;101037.28;;;21.17;100.00
32733;BME280;11867;51.198;11.966;2023-08-21T01:09:27;101038.81;;;21.06;100.00
32733;BME280;11867;51.198;11.966;2023-08-21T01:10:58;101026.84;;;21.14;100.00
32733;BME280;11867;51.198;11.966;2023-08-21T01:12:35;101033.63;;;21.55;100.00
32733;BME280;11867;51.198;11.966;2023-08-21T01:14:03;101035.66;;;21.67;100.00
32733;BME280;11867;51.198;11.966;2023-08-21T01:15:38;101033.81;;;21.71;100.00
32733;BME280;11867;51.198;11.966;2023-08-21T01:17:08;101041.53;;;21.45;100.00
32733;BME280;11867;51.198;11.966;2023-08-21T01:18:46;101038.03;;;21.56;100.00
32733;BME280;11867;51.198;11.966;2023-08-21T01:20:26;101045.66;;;22.02;100.00
32733;BME280;11867;51.198;11.966;2023-08-21T01:21:49;101040.09;;;22.02;100.00
32733;BME280;11867;51.198;11.966;2023-08-21T01:23:40;101042.06;;;22.34;100.00
32733;BME280;11867;51.198;11.966;2023-08-21T01:25:09;101042.94;;;22.60;100.00
32733;BME280;11867;51.198;11.966;2023-08-21T01:26:36;101049.06;;;22.65;100.00
32733;BME280;11867;51.198;11.966;2023-08-21T01:28:10;101048.94;;;22.16;100.00
32733;BME280;11867;51.198;11.966;2023-08-21T01:29:36;101055.34;;;21.95;100.00
32733;BME280;11867;51.198;11.966;2023-08-21T01:31:11;101043.84;;;22.18;100.00
32733;BME280;11867;51.198;11.966;2023-08-21T01:32:41;101056.69;;;22.56;100.00
32733;BME280;11867;51.198;11.966;2023-08-21T01:34:11;101046.53;;;22.60;100.00
32733;BME280;11867;51.198;11.966;2023-08-21T01:37:31;101059.00;;;22.42;100.00
32733;BME280;11867;51.198;11.966;2023-08-21T01:39:09;101055.00;;;22.64;100.00
32733;BME280;11867;51.198;11.966;2023-08-21T01:40:40;101066.06;;;22.39;100.00
32733;BME280;11867;51.198;11.966;2023-08-21T01:42:06;101053.78;;;22.19;100.00
32733;BME280;11867;51.198;11.966;2023-08-21T01:43:39;101052.38;;;22.13;100.00
32733;BME280;11867;51.198;11.966;2023-08-21T01:45:12;101055.63;;;22.15;100.00
32733;BME280;11867;51.198;11.966;2023-08-21T01:46:39;101055.16;;;21.80;100.00
32733;BME280;11867;51.198;11.966;2023-08-21T01:48:12;101050.34;;;21.68;100.00
32733;BME280;11867;51.198;11.966;2023-08-21T01:49:43;101053.56;;;22.12;100.00
32733;BME280;11867;51.198;11.966;2023-08-21T01:51:09;101053.91;;;22.44;100.00
32733;BME280;11867;51.198;11.966;2023-08-21T01:52:34;101043.41;;;22.62;100.00
32733;BME280;11867;51.198;11.966;2023-08-21T01:54:04;101046.25;;;22.53;100.00
32733;BME280;11867;51.198;11.966;2023-08-21T01:55:36;101052.09;;;21.93;100.00
32733;BME280;11867;51.198;11.966;2023-08-21T01:57:06;101045.84;;;21.96;100.00
32733;BME280;11867;51.198;11.966;2023-08-21T01:58:32;101044.91;;;21.92;100.00
32733;BME280;11867;51.198;11.966;2023-08-21T02:00:16;101036.00;;;21.99;100.00
32733;BME280;11867;51.198;11.966;2023-08-21T02:01:41;101042.97;;;22.05;100.00
32733;BME280;11867;51.198;11.966;2023-08-21T02:03:07;101046.09;;;22.25;100.00
32733;BME280;11867;51.198;11.966;2023-08-21T02:04:31;101039.66;;;22.45;100.00
32733;BME280;11867;51.198;11.966;2023-08-21T02:06:17;101043.41;;;22.62;100.00
32733;BME280;11867;51.198;11.966;2023-08-21T02:07:44;101037.94;;;22.20;100.00
32733;BME280;11867;51.198;11.966;2023-08-21T02:09:32;101031.47;;;21.61;100.00
32733;BME280;11867;51.198;11.966;2023-08-21T02:11:18;101034.22;;;21.40;100.00
32733;BME280;11867;51.198;11.966;2023-08-21T02:12:50;101037.22;;;21.56;100.00
32733;BME280;11867;51.198;11.966;2023-08-21T02:14:13;101039.66;;;21.58;100.00
32733;BME280;11867;51.198;11.966;2023-08-21T02:16:04;101034.63;;;21.51;100.00
32733;BME280;11867;51.198;11.966;2023-08-21T02:17:40;101043.72;;;21.81;100.00
32733;BME280;11867;51.198;11.966;2023-08-21T02:19:05;101045.28;;;22.03;100.00
32733;BME280;11867;51.198;11.966;2023-08-21T02:20:29;101039.25;;;22.22;100.00
32733;BME280;11867;51.198;11.966;2023-08-21T02:21:53;101038.94;;;22.03;100.00
32733;BME280;11867;51.198;11.966;2023-08-21T02:23:30;101039.03;;;22.27;100.00
32733;BME280;11867;51.198;11.966;2023-08-21T02:25:04;101037.34;;;22.47;100.00
32733;BME280;11867;51.198;11.966;2023-08-21T02:26:38;101039.44;;;22.63;100.00
32733;BME280;11867;51.198;11.966;2023-08-21T02:28:10;101044.19;;;22.50;100.00
32733;BME280;11867;51.198;11.966;2023-08-21T02:29:44;101041.28;;;22.13;100.00
32733;BME280;11867;51.198;11.966;2023-08-21T02:31:10;101046.63;;;22.18;100.00
32733;BME280;11867;51.198;11.966;2023-08-21T02:32:44;101047.03;;;22.29;100.00
32733;BME280;11867;51.198;11.966;2023-08-21T02:34:26;101044.28;;;22.41;100.00
32733;BME280;11867;51.198;11.966;2023-08-21T02:35:58;101044.13;;;21.71;100.00
32733;BME280;11867;51.198;11.966;2023-08-21T02:37:29;101037.22;;;21.56;100.00
32733;BME280;11867;51.198;11.966;2023-08-21T02:38:51;101040.47;;;21.79;100.00
32733;BME280;11867;51.198;11.966;2023-08-21T02:40:33;101033.28;;;21.78;100.00
32733;BME280;11867;51.198;11.966;2023-08-21T02:42:28;101034.91;;;22.12;100.00
32733;BME280;11867;51.198;11.966;2023-08-21T02:44:07;101033.28;;;22.45;100.00
32733;BME280;11867;51.198;11.966;2023-08-21T02:45:35;101035.75;;;22.59;100.00
32733;BME280;11867;51.198;11.966;2023-08-21T02:47:07;101031.84;;;22.72;100.00
32733;BME280;11867;51.198;11.966;2023-08-21T02:48:30;101029.84;;;22.60;100.00
32733;BME280;11867;51.198;11.966;2023-08-21T02:50:07;101029.81;;;22.35;100.00
32733;BME280;11867;51.198;11.966;2023-08-21T02:51:30;101028.09;;;22.10;100.00
32733;BME280;11867;51.198;11.966;2023-08-21T02:52:59;101026.13;;;21.77;100.00
32733;BME280;11867;51.198;11.966;2023-08-21T02:54:36;101029.78;;;21.48;100.00
32733;BME280;11867;51.198;11.966;2023-08-21T02:56:08;101031.59;;;21.44;100.00
32733;BME280;11867;51.198;11.966;2023-08-21T02:59:41;101037.66;;;22.00;100.00
32733;BME280;11867;51.198;11.966;2023-08-21T03:01:08;101028.91;;;22.10;100.00
32733;BME280;11867;51.198;11.966;2023-08-21T03:02:42;101034.88;;;22.33;100.00
32733;BME280;11867;51.198;11.966;2023-08-21T03:04:19;101040.00;;;22.44;100.00
32733;BME280;11867;51.198;11.966;2023-08-21T03:05:44;101036.41;;;22.43;100.00
32733;BME280;11867;51.198;11.966;2023-08-21T03:07:08;101029.78;;;22.23;100.00
32733;BME280;11867;51.198;11.966;2023-08-21T03:08:36;101035.59;;;22.30;100.00
32733;BME280;11867;51.198;11.966;2023-08-21T03:09:58;101042.34;;;22.21;100.00
32733;BME280;11867;51.198;11.966;2023-08-21T03:11:29;101040.22;;;22.26;100.00
32733;BME280;11867;51.198;11.966;2023-08-21T03:13:29;101043.38;;;22.16;100.00
32733;BME280;11867;51.198;11.966;2023-08-21T03:14:58;101037.44;;;22.26;100.00
32733;BME280;11867;51.198;11.966;2023-08-21T03:16:21;101036.06;;;22.45;100.00
32733;BME280;11867;51.198;11.966;2023-08-21T03:17:54;101035.81;;;22.38;100.00
32733;BME280;11867;51.198;11.966;2023-08-21T03:20:19;101046.69;;;22.09;100.00
32733;BME280;11867;51.198;11.966;2023-08-21T03:22:18;101040.81;;;22.11;100.00
32733;BME280;11867;51.198;11.966;2023-08-21T03:27:09;101030.25;;;22.25;100.00
32733;BME280;11867;51.198;11.966;2023-08-21T03:31:49;101030.63;;;22.15;100.00
32733;BME280;11867;51.198;11.966;2023-08-21T03:33:41;101033.00;;;22.25;100.00
32733;BME280;11867;51.198;11.966;2023-08-21T03:35:05;101038.25;;;22.27;100.00
32733;BME280;11867;51.198;11.966;2023-08-21T03:36:28;101039.84;;;22.28;100.00
32733;BME280;11867;51.198;11.966;2023-08-21T03:37:53;101047.06;;;22.41;100.00
32733;BME280;11867;51.198;11.966;2023-08-21T03:39:27;101045.78;;;22.39;100.00
32733;BME280;11867;51.198;11.966;2023-08-21T03:40:55;101049.72;;;22.38;100.00
32733;BME280;11867;51.198;11.966;2023-08-21T03:42:27;101043.09;;;22.30;100.00
32733;BME280;11867;51.198;11.966;2023-08-21T03:43:59;101043.78;;;22.27;100.00
32733;BME280;11867;51.198;11.966;2023-08-21T03:45:29;101047.75;;;22.38;100.00
32733;BME280;11867;51.198;11.966;2023-08-21T03:47:06;101035.81;;;22.38;100.00
32733;BME280;11867;51.198;11.966;2023-08-21T03:48:34;101038.81;;;22.32;100.00
32733;BME280;11867;51.198;11.966;2023-08-21T03:50:00;101042.53;;;22.36;100.00
32733;BME280;11867;51.198;11.966;2023-08-21T03:51:29;101045.91;;;22.42;100.00
32733;BME280;11867;51.198;11.966;2023-08-21T03:53:00;101043.72;;;22.48;100.00
32733;BME280;11867;51.198;11.966;2023-08-21T03:54:22;101045.47;;;22.52;100.00
32733;BME280;11867;51.198;11.966;2023-08-21T03:55:46;101047.75;;;22.38;100.00
32733;BME280;11867;51.198;11.966;2023-08-21T03:57:21;101045.78;;;22.39;100.00
32733;BME280;11867;51.198;11.966;2023-08-21T03:58:54;101045.31;;;22.49;100.00
32733;BME280;11867;51.198;11.966;2023-08-21T04:00:17;101045.09;;;22.42;100.00
32733;BME280;11867;51.198;11.966;2023-08-21T04:01:41;101049.91;;;22.32;100.00
32733;BME280;11867;51.198;11.966;2023-08-21T04:03:05;101041.34;;;22.25;100.00
32733;BME280;11867;51.198;11.966;2023-08-21T04:04:27;101049.28;;;21.60;100.00
32733;BME280;11867;51.198;11.966;2023-08-21T04:05:54;101044.25;;;21.24;100.00
32733;BME280;11867;51.198;11.966;2023-08-21T04:07:16;101042.34;;;21.15;100.00
32733;BME280;11867;51.198;11.966;2023-08-21T04:08:48;101046.72;;;21.25;100.00
32733;BME280;11867;51.198;11.966;2023-08-21T04:10:12;101045.50;;;21.05;100.00
32733;BME280;11867;51.198;11.966;2023-08-21T04:11:44;101038.47;;;21.08;100.00
32733;BME280;11867;51.198;11.966;2023-08-21T04:13:09;101040.41;;;21.37;100.00
32733;BME280;11867;51.198;11.966;2023-08-21T04:14:40;101041.75;;;21.61;100.00
32733;BME280;11867;51.198;11.966;2023-08-21T04:16:10;101042.72;;;21.35;100.00
32733;BME280;11867;51.198;11.966;2023-08-21T04:17:42;101043.28;;;21.49;100.00
32733;BME280;11867;51.198;11.966;2023-08-21T04:19:05;101047.78;;;21.63;100.00
32733;BME280;11867;51.198;11.966;2023-08-21T04:22:10;101058.03;;;22.04;100.00
32733;BME280;11867;51.198;11.966;2023-08-21T04:23:41;101054.69;;;22.11;100.00
32733;BME280;11867;51.198;11.966;2023-08-21T04:25:15;101062.06;;;22.28;100.00
32733;BME280;11867;51.198;11.966;2023-08-21T04:26:49;101064.28;;;22.34;100.00
32733;BME280;11867;51.198;11.966;2023-08-21T04:28:13;101062.13;;;22.19;100.00
32733;BME280;11867;51.198;11.966;2023-08-21T04:29:45;101067.81;;;22.23;100.00
32733;BME280;11867;51.198;11.966;2023-08-21T04:31:11;101068.16;;;22.21;100.00
32733;BME280;11867;51.198;11.966;2023-08-21T04:32:41;101072.91;;;22.21;100.00
32733;BME280;11867;51.198;11.966;2023-08-21T04:34:06;101071.25;;;22.20;100.00
32733;BME280;11867;51.198;11.966;2023-08-21T04:35:43;101085.38;;;22.35;100.00
32733;BME280;11867;51.198;11.966;2023-08-21T04:37:11;101078.56;;;22.12;100.00
32733;BME280;11867;51.198;11.966;2023-08-21T04:38:34;101080.06;;;21.88;100.00
32733;BME280;11867;51.198;11.966;2023-08-21T04:39:56;101080.88;;;21.08;100.00
32733;BME280;11867;51.198;11.966;2023-08-21T04:41:20;101072.47;;;20.31;100.00
32733;BME280;11867;51.198;11.966;2023-08-21T04:42:42;101069.22;;;20.29;100.00
32733;BME280;11867;51.198;11.966;2023-08-21T04:44:06;101067.31;;;20.04;100.00
32733;BME280;11867;51.198;11.966;2023-08-21T04:45:28;101069.75;;;20.14;100.00
32733;BME280;11867;51.198;11.966;2023-08-21T04:46:52;101075.13;;;20.28;100.00
32733;BME280;11867;51.198;11.966;2023-08-21T04:48:23;101072.69;;;20.09;100.00
32733;BME280;11867;51.198;11.966;2023-08-21T04:50:03;101074.94;;;20.33;100.00
32733;BME280;11867;51.198;11.966;2023-08-21T04:51:26;101070.19;;;20.33;100.00
32733;BME280;11867;51.198;11.966;2023-08-21T04:52:49;101073.41;;;20.44;100.00
32733;BME280;11867;51.198;11.966;2023-08-21T04:54:14;101066.59;;;20.42;100.00
32733;BME280;11867;51.198;11.966;2023-08-21T04:55:43;101070.16;;;20.51;100.00
32733;BME280;11867;51.198;11.966;2023-08-21T04:57:09;101064.63;;;20.42;100.00
32733;BME280;11867;51.198;11.966;2023-08-21T04:58:35;101065.31;;;20.30;100.00
32733;BME280;11867;51.198;11.966;2023-08-21T05:00:21;101065.78;;;20.41;100.00
32733;BME280;11867;51.198;11.966;2023-08-21T05:01:52;101069.50;;;20.54;100.00
32733;BME280;11867;51.198;11.966;2023-08-21T05:03:18;101065.91;;;20.62;100.00
32733;BME280;11867;51.198;11.966;2023-08-21T05:04:50;101070.25;;;20.81;100.00
32733;BME280;11867;51.198;11.966;2023-08-21T05:06:12;101073.66;;;21.16;100.00
32733;BME280;11867;51.198;11.966;2023-08-21T05:07:41;101074.34;;;21.13;100.00
32733;BME280;11867;51.198;11.966;2023-08-21T05:09:15;101069.94;;;21.12;100.00
32733;BME280;11867;51.198;11.966;2023-08-21T05:10:46;101071.09;;;21.11;100.00
32733;BME280;11867;51.198;11.966;2023-08-21T05:12:12;101082.88;;;20.99;100.00
32733;BME280;11867;51.198;11.966;2023-08-21T05:13:45;101079.84;;;20.92;100.00
32733;BME280;11867;51.198;11.966;2023-08-21T05:15:12;101080.47;;;21.27;100.00
32733;BME280;11867;51.198;11.966;2023-08-21T05:16:49;101076.94;;;21.39;100.00
32733;BME280;11867;51.198;11.966;2023-08-21T05:18:12;101083.63;;;21.47;100.00
32733;BME280;11867;51.198;11.966;2023-08-21T05:19:43;101071.03;;;21.49;100.00
32733;BME280;11867;51.198;11.966;2023-08-21T05:21:15;101076.31;;;21.42;100.00
32733;BME280;11867;51.198;11.966;2023-08-21T05:23:04;101072.38;;;21.43;100.00
32733;BME280;11867;51.198;11.966;2023-08-21T05:24:31;101070.22;;;21.70;100.00
32733;BME280;11867;51.198;11.966;2023-08-21T05:26:01;101086.34;;;21.98;100.00
32733;BME280;11867;51.198;11.966;2023-08-21T05:27:38;101074.13;;;22.11;100.00
32733;BME280;11867;51.198;11.966;2023-08-21T05:30:46;101079.84;;;22.48;100.00
32733;BME280;11867;51.198;11.966;2023-08-21T05:32:38;101082.66;;;22.72;100.00
32733;BME280;11867;51.198;11.966;2023-08-21T05:34:04;101096.34;;;22.90;100.00
32733;BME280;11867;51.198;11.966;2023-08-21T05:35:43;101091.72;;;22.94;100.00
32733;BME280;11867;51.198;11.966;2023-08-21T05:37:15;101097.06;;;22.99;100.00
32733;BME280;11867;51.198;11.966;2023-08-21T05:38:56;101097.19;;;23.03;100.00
32733;BME280;11867;51.198;11.966;2023-08-21T05:40:23;101104.41;;;23.16;100.00
32733;BME280;11867;51.198;11.966;2023-08-21T05:41:58;101099.63;;;23.29;100.00
32733;BME280;11867;51.198;11.966;2023-08-21T05:43:37;101104.16;;;23.33;100.00
32733;BME280;11867;51.198;11.966;2023-08-21T05:45:08;101099.41;;;23.34;100.00
32733;BME280;11867;51.198;11.966;2023-08-21T05:46:38;101104.88;;;23.18;100.00
32733;BME280;11867;51.198;11.966;2023-08-21T05:48:01;101102.19;;;23.34;100.00
32733;BME280;11867;51.198;11.966;2023-08-21T05:49:42;101112.38;;;23.54;100.00
32733;BME280;11867;51.198;11.966;2023-08-21T05:51:41;101106.31;;;23.65;100.00
32733;BME280;11867;51.198;11.966;2023-08-21T05:53:16;101109.66;;;23.70;100.00
32733;BME280;11867;51.198;11.966;2023-08-21T05:54:56;101110.72;;;23.78;99.12
32733;BME280;11867;51.198;11.966;2023-08-21T05:56:43;101114.09;;;23.84;97.39
32733;BME280;11867;51.198;11.966;2023-08-21T05:58:27;101106.19;;;23.86;95.41
32733;BME280;11867;51.198;11.966;2023-08-21T06:00:09;101103.94;;;23.91;95.56
32733;BME280;11867;51.198;11.966;2023-08-21T06:02:13;101108.94;;;23.98;95.19
32733;BME280;11867;51.198;11.966;2023-08-21T06:03:57;101107.41;;;24.01;96.16
32733;BME280;11867;51.198;11.966;2023-08-21T06:05:37;101106.44;;;24.09;95.19
32733;BME280;11867;51.198;11.966;2023-08-21T06:09:44;101116.13;;;24.27;94.81
32733;BME280;11867;51.198;11.966;2023-08-21T06:11:06;101113.41;;;24.31;94.10
32733;BME280;11867;51.198;11.966;2023-08-21T06:12:41;101113.41;;;24.31;95.58
32733;BME280;11867;51.198;11.966;2023-08-21T06:14:14;101115.66;;;24.53;94.44
32733;BME280;11867;51.198;11.966;2023-08-21T06:15:39;101116.56;;;24.57;93.90
32733;BME280;11867;51.198;11.966;2023-08-21T06:17:23;101128.28;;;24.63;93.13
32733;BME280;11867;51.198;11.966;2023-08-21T06:18:51;101123.31;;;24.56;93.96
32733;BME280;11867;51.198;11.966;2023-08-21T06:20:30;101133.91;;;24.51;95.46
32733;BME280;11867;51.198;11.966;2023-08-21T06:22:07;101139.00;;;24.49;94.73
32733;BME280;11867;51.198;11.966;2023-08-21T06:23:34;101136.63;;;24.35;94.78
32733;BME280;11867;51.198;11.966;2023-08-21T06:25:03;101133.56;;;24.52;93.67
32733;BME280;11867;51.198;11.966;2023-08-21T06:26:32;101138.41;;;24.55;94.10
32733;BME280;11867;51.198;11.966;2023-08-21T06:28:09;101136.34;;;24.52;94.78
32733;BME280;11867;51.198;11.966;2023-08-21T06:29:50;101143.28;;;24.59;94.57
32733;BME280;11867;51.198;11.966;2023-08-21T06:31:19;101141.19;;;24.55;94.95
32733;BME280;11867;51.198;11.966;2023-08-21T06:33:00;101139.25;;;24.56;95.26
32733;BME280;11867;51.198;11.966;2023-08-21T06:34:25;101146.81;;;24.71;92.82
32733;BME280;11867;51.198;11.966;2023-08-21T06:35:47;101140.53;;;24.74;93.00
32733;BME280;11867;51.198;11.966;2023-08-21T06:37:13;101137.66;;;24.71;92.73
32733;BME280;11867;51.198;11.966;2023-08-21T06:38:40;101150.34;;;24.68;92.85
32733;BME280;11867;51.198;11.966;2023-08-21T06:40:07;101149.59;;;24.71;93.15
32733;BME280;11867;51.198;11.966;2023-08-21T06:41:30;101151.50;;;24.67;92.51
32733;BME280;11867;51.198;11.966;2023-08-21T06:42:58;101153.44;;;24.51;93.13
32733;BME280;11867;51.198;11.966;2023-08-21T06:44:21;101149.25;;;24.45;94.15
32733;BME280;11867;51.198;11.966;2023-08-21T06:45:44;101151.44;;;24.23;94.90
32733;BME280;11867;51.198;11.966;2023-08-21T06:47:06;101152.81;;;24.29;95.81
32733;BME280;11867;51.198;11.966;2023-08-21T06:48:30;101162.03;;;24.46;94.72
32733;BME280;11867;51.198;11.966;2023-08-21T06:49:55;101150.66;;;24.38;94.89
32733;BME280;11867;51.198;11.966;2023-08-21T06:51:18;101153.19;;;24.56;94.30
32733;BME280;11867;51.198;11.966;2023-08-21T06:52:43;101158.00;;;24.87;92.48
32733;BME280;11867;51.198;11.966;2023-08-21T06:54:09;101150.16;;;24.77;92.84
32733;BME280;11867;51.198;11.966;2023-08-21T06:55:36;101145.41;;;24.49;93.13
32733;BME280;11867;51.198;11.966;2023-08-21T06:57:02;101155.16;;;24.55;93.53
32733;BME280;11867;51.198;11.966;2023-08-21T06:58:26;101147.16;;;24.54;93.82
32733;BME280;11867;51.198;11.966;2023-08-21T06:59:48;101156.44;;;24.74;92.31
32733;BME280;11867;51.198;11.966;2023-08-21T07:01:28;101151.69;;;24.74;92.39
32733;BME280;11867;51.198;11.966;2023-08-21T07:03:11;101157.78;;;24.64;93.90
32733;BME280;11867;51.198;11.966;2023-08-21T07:04:34;101167.34;;;24.79;93.56
32733;BME280;11867;51.198;11.966;2023-08-21T07:06:01;101155.56;;;24.86;93.18
32733;BME280;11867;51.198;11.966;2023-08-21T07:07:27;101147.75;;;24.91;93.09
32733;BME280;11867;51.198;11.966;2023-08-21T07:08:55;101150.81;;;25.02;92.07
32733;BME280;11867;51.198;11.966;2023-08-21T07:10:32;101150.38;;;25.16;91.93
32733;BME280;11867;51.198;11.966;2023-08-21T07:11:58;101150.75;;;25.30;91.03
32733;BME280;11867;51.198;11.966;2023-08-21T07:13:25;101153.69;;;25.37;89.21
32733;BME280;11867;51.198;11.966;2023-08-21T07:14:49;101151.25;;;25.20;90.49
32733;BME280;11867;51.198;11.966;2023-08-21T07:16:18;101156.56;;;24.93;92.26
32733;BME280;11867;51.198;11.966;2023-08-21T07:17:41;101156.19;;;24.95;91.61
32733;BME280;11867;51.198;11.966;2023-08-21T07:19:04;101163.94;;;25.02;91.49
32733;BME280;11867;51.198;11.966;2023-08-21T07:20:52;101165.91;;;25.01;91.49
32733;BME280;11867;51.198;11.966;2023-08-21T07:22:15;101170.03;;;24.75;94.30
32733;BME280;11867;51.198;11.966;2023-08-21T07:23:38;101175.16;;;24.73;94.92
32733;BME280;11867;51.198;11.966;2023-08-21T07:25:10;101160.06;;;24.90;91.27
32733;BME280;11867;51.198;11.966;2023-08-21T07:26:35;101168.53;;;25.10;89.08
32733;BME280;11867;51.198;11.966;2023-08-21T07:28:01;101165.75;;;24.94;89.68
32733;BME280;11867;51.198;11.966;2023-08-21T07:29:23;101169.16;;;24.31;91.66
32733;BME280;11867;51.198;11.966;2023-08-21T07:30:47;101169.13;;;24.15;92.97
32733;BME280;11867;51.198;11.966;2023-08-21T07:32:10;101169.91;;;24.15;93.51
32733;BME280;11867;51.198;11.966;2023-08-21T07:33:40;101166.69;;;24.42;91.74
32733;BME280;11867;51.198;11.966;2023-08-21T07:35:06;101159.50;;;24.12;93.60
32733;BME280;11867;51.198;11.966;2023-08-21T07:36:31;101157.94;;;24.27;93.59
32733;BME280;11867;51.198;11.966;2023-08-21T07:37:54;101161.81;;;24.38;93.34
32733;BME280;11867;51.198;11.966;2023-08-21T07:39:31;101163.44;;;24.52;92.85
32733;BME280;11867;51.198;11.966;2023-08-21T07:41:04;101154.66;;;24.82;91.89
32733;BME280;11867;51.198;11.966;2023-08-21T07:42:28;101150.16;;;25.09;90.19
32733;BME280;11867;51.198;11.966;2023-08-21T07:43:56;101149.53;;;25.15;88.37
32733;BME280;11867;51.198;11.966;2023-08-21T07:45:30;101156.47;;;25.06;87.23
32733;BME280;11867;51.198;11.966;2023-08-21T07:46:56;101159.16;;;24.86;86.88
32733;BME280;11867;51.198;11.966;2023-08-21T07:48:18;101164.72;;;24.02;89.03
32733;BME280;11867;51.198;11.966;2023-08-21T07:49:42;101161.31;;;24.21;90.31
32733;BME280;11867;51.198;11.966;2023-08-21T07:51:13;101163.16;;;24.57;90.69
32733;BME280;11867;51.198;11.966;2023-08-21T07:52:37;101169.97;;;24.88;88.31
32733;BME280;11867;51.198;11.966;2023-08-21T07:54:01;101169.97;;;24.88;87.47
32733;BME280;11867;51.198;11.966;2023-08-21T07:55:23;101169.84;;;24.68;88.95
32733;BME280;11867;51.198;11.966;2023-08-21T07:56:46;101174.13;;;24.50;89.65
32733;BME280;11867;51.198;11.966;2023-08-21T07:58:11;101172.75;;;24.88;89.46
32733;BME280;11867;51.198;11.966;2023-08-21T07:59:38;101167.97;;;24.88;87.58
32733;BME280;11867;51.198;11.966;2023-08-21T08:01:01;101171.50;;;24.85;87.56
32733;BME280;11867;51.198;11.966;2023-08-21T08:02:27;101173.28;;;24.77;87.61